createdAt,value
2019-06-20T00:00:20.609Z,22.72
2019-06-20T00:01:22.018Z,22.70
2019-06-20T00:02:23.409Z,22.78
2019-06-20T00:03:24.815Z,22.81
2019-06-20T00:04:26.223Z,22.70
2019-06-20T00:05:27.615Z,22.79
2019-06-20T00:06:29.019Z,22.69
2019-06-20T00:07:30.421Z,22.69
2019-06-20T00:08:31.824Z,22.74
2019-06-20T00:09:33.223Z,22.78
2019-06-20T00:10:34.635Z,22.75
2019-06-20T00:11:36.038Z,22.81
2019-06-20T00:12:37.441Z,22.69
2019-06-20T00:13:38.845Z,22.72
2019-06-20T00:14:40.244Z,22.75
2019-06-20T00:15:41.703Z,22.67
2019-06-20T00:16:43.002Z,22.70
2019-06-20T00:17:44.406Z,22.69
2019-06-20T00:18:45.822Z,22.69
2019-06-20T00:19:47.225Z,22.75
2019-06-20T00:20:48.633Z,22.67
2019-06-20T00:21:50.058Z,22.66
2019-06-20T00:22:51.463Z,22.69
2019-06-20T00:23:52.853Z,22.78
2019-06-20T00:24:54.254Z,22.76
2019-06-20T00:25:55.653Z,22.64
2019-06-20T00:26:57.055Z,22.84
2019-06-20T00:27:58.467Z,22.85
2019-06-20T00:28:59.870Z,22.79
2019-06-20T00:30:01.276Z,22.81
2019-06-20T00:31:02.693Z,22.84
2019-06-20T00:32:04.100Z,22.76
2019-06-20T00:33:05.526Z,22.86
2019-06-20T00:34:06.930Z,22.96
2019-06-20T00:35:08.322Z,22.82
2019-06-20T00:36:09.726Z,22.96
2019-06-20T00:37:11.125Z,22.88
2019-06-20T00:38:12.547Z,22.86
2019-06-20T00:39:13.948Z,23.00
2019-06-20T00:40:15.347Z,22.94
2019-06-20T00:41:16.748Z,22.94
2019-06-20T00:42:18.148Z,22.91
2019-06-20T00:43:19.549Z,22.99
2019-06-20T00:44:20.985Z,22.86
2019-06-20T00:45:22.361Z,22.88
2019-06-20T00:46:23.753Z,22.88
2019-06-20T00:47:25.159Z,22.85
2019-06-20T00:48:26.569Z,22.91
2019-06-20T00:49:28.042Z,22.99
2019-06-20T00:50:29.401Z,22.99
2019-06-20T00:51:30.809Z,22.99
2019-06-20T00:52:32.207Z,22.84
2019-06-20T00:53:33.630Z,22.97
2019-06-20T00:54:35.021Z,22.89
2019-06-20T00:55:36.419Z,22.93
2019-06-20T00:56:37.839Z,22.84
2019-06-20T00:57:39.235Z,22.81
2019-06-20T00:58:40.639Z,22.82
2019-06-20T00:59:42.034Z,22.79
2019-06-20T01:00:43.400Z,22.85
2019-06-20T01:01:44.806Z,22.85
2019-06-20T01:02:46.214Z,22.84
2019-06-20T01:03:47.617Z,22.84
2019-06-20T01:04:49.017Z,22.76
2019-06-20T01:05:50.429Z,22.84
2019-06-20T01:06:51.833Z,22.89
2019-06-20T01:07:53.235Z,22.76
2019-06-20T01:08:54.633Z,22.75
2019-06-20T01:09:56.041Z,22.67
2019-06-20T01:10:57.433Z,22.72
2019-06-20T01:11:58.834Z,22.66
2019-06-20T01:13:00.233Z,22.70
2019-06-20T01:14:01.633Z,22.70
2019-06-20T01:15:03.034Z,22.75
2019-06-20T01:16:04.428Z,22.63
2019-06-20T01:17:05.837Z,22.66
2019-06-20T01:18:07.242Z,22.69
2019-06-20T01:19:08.655Z,22.67
2019-06-20T01:20:10.056Z,22.63
2019-06-20T01:21:11.466Z,22.60
2019-06-20T01:22:12.864Z,22.63
2019-06-20T01:23:14.266Z,22.63
2019-06-20T01:24:15.660Z,22.57
2019-06-20T01:25:17.062Z,22.49
2019-06-20T01:26:18.459Z,22.56
2019-06-20T01:27:19.859Z,22.56
2019-06-20T01:28:21.267Z,22.57
2019-06-20T01:29:22.670Z,22.51
2019-06-20T01:30:24.061Z,22.56
2019-06-20T01:31:25.469Z,22.52
2019-06-20T01:32:26.864Z,22.57
2019-06-20T01:33:28.262Z,22.56
2019-06-20T01:34:29.684Z,22.51
2019-06-20T01:35:31.069Z,22.48
2019-06-20T01:36:32.463Z,22.46
2019-06-20T01:37:33.873Z,22.49
2019-06-20T01:38:35.265Z,22.51
2019-06-20T01:39:36.683Z,22.48
2019-06-20T01:40:38.075Z,22.48
2019-06-20T01:41:39.503Z,22.52
2019-06-20T01:42:40.884Z,22.52
2019-06-20T01:43:50.652Z,22.49
2019-06-20T01:44:43.644Z,22.44
2019-06-20T01:45:45.041Z,22.44
2019-06-20T01:46:46.443Z,22.41
2019-06-20T01:47:47.850Z,22.39
2019-06-20T01:48:49.240Z,22.39
2019-06-20T01:49:50.647Z,22.42
2019-06-20T01:50:52.033Z,22.44
2019-06-20T01:51:53.452Z,22.33
2019-06-20T01:52:54.850Z,22.42
2019-06-20T01:53:56.262Z,22.36
2019-06-20T01:54:57.659Z,22.38
2019-06-20T01:55:59.065Z,22.29
2019-06-20T01:57:00.474Z,22.38
2019-06-20T01:58:01.887Z,22.38
2019-06-20T01:59:03.290Z,22.39
2019-06-20T02:00:04.691Z,22.27
2019-06-20T02:01:06.089Z,22.29
2019-06-20T02:02:07.480Z,22.31
2019-06-20T02:03:08.878Z,22.26
2019-06-20T02:04:10.276Z,22.21
2019-06-20T02:05:11.693Z,22.33
2019-06-20T02:06:13.101Z,22.24
2019-06-20T02:07:14.513Z,22.29
2019-06-20T02:08:15.914Z,22.23
2019-06-20T02:09:17.311Z,22.31
2019-06-20T02:10:18.752Z,22.26
2019-06-20T02:11:20.141Z,22.24
2019-06-20T02:12:21.539Z,22.31
2019-06-20T02:13:22.939Z,22.24
2019-06-20T02:14:24.341Z,22.24
2019-06-20T02:15:25.749Z,22.15
2019-06-20T02:16:27.160Z,22.14
2019-06-20T02:17:28.570Z,22.12
2019-06-20T02:18:29.970Z,22.15
2019-06-20T02:19:31.385Z,22.08
2019-06-20T02:20:32.789Z,22.05
2019-06-20T02:21:34.191Z,22.11
2019-06-20T02:22:35.608Z,22.05
2019-06-20T02:23:37.004Z,22.12
2019-06-20T02:24:38.412Z,22.02
2019-06-20T02:25:39.812Z,21.96
2019-06-20T02:26:41.211Z,22.08
2019-06-20T02:27:42.608Z,21.99
2019-06-20T02:28:44.002Z,21.99
2019-06-20T02:29:45.412Z,21.86
2019-06-20T02:30:46.812Z,21.86
2019-06-20T02:31:48.214Z,21.86
2019-06-20T02:32:49.622Z,21.83
2019-06-20T02:33:51.021Z,21.86
2019-06-20T02:34:52.413Z,21.89
2019-06-20T02:35:53.830Z,21.77
2019-06-20T02:36:55.221Z,21.79
2019-06-20T02:37:56.646Z,21.85
2019-06-20T02:38:58.030Z,21.77
2019-06-20T02:39:59.431Z,21.79
2019-06-20T02:41:00.825Z,21.81
2019-06-20T02:42:02.226Z,21.79
2019-06-20T02:43:03.617Z,21.83
2019-06-20T02:44:05.051Z,21.83
2019-06-20T02:45:06.454Z,21.85
2019-06-20T02:46:07.848Z,21.77
2019-06-20T02:47:09.358Z,21.85
2019-06-20T02:48:10.618Z,21.89
2019-06-20T02:49:12.029Z,21.82
2019-06-20T02:50:13.440Z,21.79
2019-06-20T02:51:14.846Z,21.83
2019-06-20T02:52:16.254Z,21.81
2019-06-20T02:53:17.663Z,21.81
2019-06-20T02:54:20.001Z,21.81
2019-06-20T02:55:21.407Z,21.82
2019-06-20T02:56:22.801Z,21.71
2019-06-20T02:57:24.204Z,21.75
2019-06-20T02:58:25.608Z,21.75
2019-06-20T02:59:27.020Z,21.77
2019-06-20T03:00:28.420Z,21.74
2019-06-20T03:01:29.823Z,21.73
2019-06-20T03:02:31.228Z,21.64
2019-06-20T03:03:32.640Z,21.61
2019-06-20T03:04:34.140Z,21.66
2019-06-20T03:05:35.413Z,21.68
2019-06-20T03:06:36.834Z,21.61
2019-06-20T03:07:38.230Z,21.63
2019-06-20T03:08:39.646Z,21.46
2019-06-20T03:09:41.060Z,21.49
2019-06-20T03:10:42.469Z,21.40
2019-06-20T03:11:43.873Z,21.40
2019-06-20T03:12:45.277Z,21.48
2019-06-20T03:13:46.708Z,21.43
2019-06-20T03:14:48.107Z,21.37
2019-06-20T03:15:50.101Z,21.38
2019-06-20T03:16:50.898Z,21.38
2019-06-20T03:17:52.289Z,21.37
2019-06-20T03:18:53.709Z,21.42
2019-06-20T03:19:55.110Z,21.42
2019-06-20T03:20:56.509Z,21.33
2019-06-20T03:21:57.930Z,21.43
2019-06-20T03:22:59.324Z,21.36
2019-06-20T03:24:00.732Z,21.33
2019-06-20T03:25:02.155Z,21.40
2019-06-20T03:26:03.574Z,21.33
2019-06-20T03:27:04.961Z,21.34
2019-06-20T03:28:06.372Z,21.31
2019-06-20T03:29:07.772Z,21.37
2019-06-20T03:30:09.180Z,21.37
2019-06-20T03:31:10.589Z,21.36
2019-06-20T03:32:11.994Z,21.37
2019-06-20T03:33:13.416Z,21.36
2019-06-20T03:34:14.826Z,21.36
2019-06-20T03:35:16.232Z,21.34
2019-06-20T03:36:17.642Z,21.33
2019-06-20T03:37:19.051Z,21.37
2019-06-20T03:38:20.464Z,21.30
2019-06-20T03:39:21.872Z,21.34
2019-06-20T03:40:23.273Z,21.36
2019-06-20T03:41:24.684Z,21.31
2019-06-20T03:42:26.089Z,21.36
2019-06-20T03:43:27.491Z,21.38
2019-06-20T03:44:28.906Z,21.27
2019-06-20T03:45:30.310Z,21.31
2019-06-20T03:46:31.726Z,21.26
2019-06-20T03:47:33.129Z,21.24
2019-06-20T03:48:34.535Z,21.31
2019-06-20T03:49:35.949Z,21.31
2019-06-20T03:50:37.365Z,21.30
2019-06-20T03:51:38.761Z,21.30
2019-06-20T03:52:40.173Z,21.26
2019-06-20T03:53:41.570Z,21.30
2019-06-20T03:54:42.982Z,21.37
2019-06-20T03:55:44.388Z,21.36
2019-06-20T03:56:45.812Z,21.36
2019-06-20T03:57:47.950Z,21.45
2019-06-20T03:58:49.346Z,21.48
2019-06-20T03:59:50.777Z,21.51
2019-06-20T04:00:52.175Z,21.55
2019-06-20T04:01:53.593Z,21.66
2019-06-20T04:02:55.003Z,21.66
2019-06-20T04:03:56.406Z,21.70
2019-06-20T04:04:57.816Z,21.71
2019-06-20T04:05:59.216Z,21.79
2019-06-20T04:07:00.631Z,21.86
2019-06-20T04:08:02.026Z,21.90
2019-06-20T04:09:03.433Z,21.79
2019-06-20T04:10:04.834Z,21.90
2019-06-20T04:11:06.250Z,21.86
2019-06-20T04:12:07.667Z,21.85
2019-06-20T04:13:09.068Z,21.90
2019-06-20T04:14:10.480Z,21.98
2019-06-20T04:15:18.965Z,21.99
2019-06-20T04:16:13.249Z,22.05
2019-06-20T04:17:14.659Z,22.05
2019-06-20T04:18:16.069Z,22.20
2019-06-20T04:19:17.479Z,22.24
2019-06-20T04:20:18.875Z,22.30
2019-06-20T04:21:20.273Z,22.20
2019-06-20T04:22:21.687Z,22.33
2019-06-20T04:23:23.093Z,22.26
2019-06-20T04:24:27.107Z,22.24
2019-06-20T04:25:25.843Z,22.12
2019-06-20T04:26:27.254Z,22.14
2019-06-20T04:27:28.665Z,22.19
2019-06-20T04:28:30.062Z,22.23
2019-06-20T04:29:31.488Z,22.38
2019-06-20T04:30:32.893Z,22.30
2019-06-20T04:31:34.299Z,22.36
2019-06-20T04:32:35.769Z,22.44
2019-06-20T04:33:37.098Z,22.69
2019-06-20T04:34:38.505Z,22.94
2019-06-20T04:35:39.902Z,23.07
2019-06-20T04:36:41.358Z,23.14
2019-06-20T04:37:42.685Z,23.39
2019-06-20T04:38:44.106Z,23.67
2019-06-20T04:39:45.477Z,23.89
2019-06-20T04:40:46.893Z,24.63
2019-06-20T04:41:48.321Z,25.27
2019-06-20T04:42:49.746Z,25.89
2019-06-20T04:43:51.163Z,26.61
2019-06-20T04:44:52.557Z,27.20
2019-06-20T04:45:54.914Z,28.05
2019-06-20T04:46:56.343Z,29.02
2019-06-20T04:47:57.770Z,29.70
2019-06-20T04:48:59.178Z,30.40
2019-06-20T04:50:00.591Z,31.01
2019-06-20T04:51:02.048Z,31.67
2019-06-20T04:52:03.463Z,31.88
2019-06-20T04:53:04.890Z,31.82
2019-06-20T04:54:06.325Z,31.42
2019-06-20T04:55:07.742Z,31.59
2019-06-20T04:56:09.155Z,31.88
2019-06-20T04:57:10.573Z,32.27
2019-06-20T04:58:11.991Z,32.14
2019-06-20T04:59:13.431Z,32.05
2019-06-20T05:00:14.852Z,31.76
2019-06-20T05:01:16.836Z,31.67
2019-06-20T05:02:18.252Z,31.79
2019-06-20T05:03:19.657Z,31.65
2019-06-20T05:04:21.086Z,31.16
2019-06-20T05:05:22.492Z,30.94
2019-06-20T05:06:23.914Z,30.59
2019-06-20T05:07:25.324Z,30.34
2019-06-20T05:08:26.766Z,30.15
2019-06-20T05:09:28.196Z,29.88
2019-06-20T05:10:29.616Z,29.52
2019-06-20T05:11:31.033Z,29.10
2019-06-20T05:12:32.467Z,28.87
2019-06-20T05:13:33.881Z,28.67
2019-06-20T05:14:35.290Z,28.27
2019-06-20T05:15:51.479Z,28.15
2019-06-20T05:16:38.081Z,28.11
2019-06-20T05:17:39.533Z,27.78
2019-06-20T05:18:40.956Z,27.50
2019-06-20T05:19:42.361Z,27.15
2019-06-20T05:20:43.783Z,27.01
2019-06-20T05:21:45.197Z,26.93
2019-06-20T05:22:46.607Z,26.79
2019-06-20T05:23:48.026Z,26.76
2019-06-20T05:24:49.444Z,26.78
2019-06-20T05:25:50.862Z,26.81
2019-06-20T05:26:52.268Z,26.83
2019-06-20T05:27:53.730Z,26.91
2019-06-20T05:28:55.050Z,26.87
2019-06-20T05:29:56.457Z,26.83
2019-06-20T05:30:57.874Z,26.65
2019-06-20T05:31:59.286Z,26.59
2019-06-20T05:33:00.693Z,26.44
2019-06-20T05:34:02.098Z,26.24
2019-06-20T05:35:03.542Z,26.23
2019-06-20T05:36:04.950Z,26.24
2019-06-20T05:37:06.366Z,26.21
2019-06-20T05:38:07.789Z,26.32
2019-06-20T05:39:09.183Z,26.27
2019-06-20T05:40:10.603Z,26.09
2019-06-20T05:41:12.013Z,26.13
2019-06-20T05:42:13.426Z,26.00
2019-06-20T05:43:14.827Z,26.23
2019-06-20T05:44:16.247Z,27.31
2019-06-20T05:45:17.677Z,28.23
2019-06-20T05:46:19.135Z,28.87
2019-06-20T05:47:20.527Z,28.83
2019-06-20T05:48:21.909Z,28.60
2019-06-20T05:49:23.364Z,28.36
2019-06-20T05:50:24.783Z,28.36
2019-06-20T05:51:26.197Z,28.18
2019-06-20T05:52:27.598Z,28.20
2019-06-20T05:53:29.010Z,28.27
2019-06-20T05:54:30.409Z,28.36
2019-06-20T05:55:31.830Z,28.36
2019-06-20T05:56:33.244Z,28.23
2019-06-20T05:57:34.676Z,28.20
2019-06-20T05:58:36.080Z,28.18
2019-06-20T05:59:37.544Z,28.17
2019-06-20T06:00:38.974Z,28.17
2019-06-20T06:01:40.388Z,28.17
2019-06-20T06:02:41.816Z,28.01
2019-06-20T06:03:43.258Z,28.05
2019-06-20T06:04:44.653Z,27.74
2019-06-20T06:05:46.079Z,27.63
2019-06-20T06:06:47.580Z,27.63
2019-06-20T06:07:48.883Z,27.61
2019-06-20T06:08:50.351Z,27.50
2019-06-20T06:09:51.775Z,27.52
2019-06-20T06:10:53.212Z,27.40
2019-06-20T06:11:54.644Z,27.25
2019-06-20T06:12:56.027Z,27.18
2019-06-20T06:13:57.425Z,27.13
2019-06-20T06:15:00.846Z,27.12
2019-06-20T06:16:00.312Z,27.11
2019-06-20T06:17:01.630Z,27.02
2019-06-20T06:18:03.086Z,27.06
2019-06-20T06:19:04.490Z,26.97
2019-06-20T06:20:05.909Z,26.86
2019-06-20T06:21:07.337Z,26.84
2019-06-20T06:22:08.735Z,26.69
2019-06-20T06:23:10.152Z,26.46
2019-06-20T06:24:11.555Z,26.32
2019-06-20T06:25:12.960Z,26.23
2019-06-20T06:26:14.387Z,26.08
2019-06-20T06:27:15.790Z,25.82
2019-06-20T06:28:17.209Z,25.82
2019-06-20T06:29:18.618Z,25.82
2019-06-20T06:30:20.051Z,25.93
2019-06-20T06:31:21.456Z,25.91
2019-06-20T06:32:36.296Z,25.94
2019-06-20T06:33:24.235Z,26.00
2019-06-20T06:34:25.656Z,26.23
2019-06-20T06:35:27.039Z,26.32
2019-06-20T06:36:28.475Z,26.39
2019-06-20T06:37:29.881Z,26.49
2019-06-20T06:38:31.313Z,26.60
2019-06-20T06:39:32.736Z,26.75
2019-06-20T06:40:34.149Z,26.93
2019-06-20T06:41:35.549Z,27.30
2019-06-20T06:42:36.955Z,27.55
2019-06-20T06:43:41.865Z,27.77
2019-06-20T06:44:39.757Z,28.05
2019-06-20T06:45:41.154Z,28.24
2019-06-20T06:46:48.435Z,28.51
2019-06-20T06:47:43.931Z,28.60
2019-06-20T06:48:45.377Z,28.46
2019-06-20T06:49:46.749Z,28.38
2019-06-20T06:50:48.164Z,28.35
2019-06-20T06:51:49.566Z,28.23
2019-06-20T06:52:50.960Z,28.25
2019-06-20T06:53:52.368Z,28.27
2019-06-20T06:54:53.777Z,28.28
2019-06-20T06:55:55.207Z,28.17
2019-06-20T06:56:56.623Z,28.13
2019-06-20T06:57:58.121Z,28.08
2019-06-20T06:58:59.418Z,27.99
2019-06-20T07:00:00.833Z,28.01
2019-06-20T07:01:02.343Z,28.05
2019-06-20T07:02:03.649Z,27.96
2019-06-20T07:03:05.094Z,27.96
2019-06-20T07:04:06.501Z,27.86
2019-06-20T07:05:07.917Z,27.83
2019-06-20T07:06:09.396Z,27.58
2019-06-20T07:07:10.714Z,27.48
2019-06-20T07:08:12.133Z,27.42
2019-06-20T07:09:13.545Z,27.34
2019-06-20T07:10:14.950Z,27.25
2019-06-20T07:11:16.376Z,27.25
2019-06-20T07:12:17.774Z,27.09
2019-06-20T07:13:19.185Z,26.94
2019-06-20T07:14:20.643Z,26.81
2019-06-20T07:15:22.055Z,26.73
2019-06-20T07:16:23.464Z,26.47
2019-06-20T07:17:24.869Z,26.27
2019-06-20T07:18:26.291Z,26.17
2019-06-20T07:19:27.681Z,25.97
2019-06-20T07:20:29.089Z,25.85
2019-06-20T07:21:30.500Z,25.67
2019-06-20T07:22:31.942Z,25.53
2019-06-20T07:23:33.343Z,25.38
2019-06-20T07:24:34.748Z,25.38
2019-06-20T07:25:36.158Z,25.23
2019-06-20T07:26:37.569Z,25.23
2019-06-20T07:27:38.984Z,25.17
2019-06-20T07:28:40.394Z,25.24
2019-06-20T07:29:41.799Z,25.31
2019-06-20T07:30:43.208Z,25.19
2019-06-20T07:31:44.620Z,25.23
2019-06-20T07:32:46.026Z,25.17
2019-06-20T07:33:47.430Z,25.36
2019-06-20T07:34:48.839Z,25.29
2019-06-20T07:35:50.242Z,25.34
2019-06-20T07:36:51.669Z,25.24
2019-06-20T07:37:53.067Z,25.41
2019-06-20T07:38:54.480Z,25.45
2019-06-20T07:39:55.891Z,25.64
2019-06-20T07:40:57.291Z,25.66
2019-06-20T07:41:58.699Z,25.66
2019-06-20T07:43:00.123Z,25.56
2019-06-20T07:44:01.558Z,25.59
2019-06-20T07:45:03.017Z,25.57
2019-06-20T07:46:04.434Z,25.57
2019-06-20T07:47:17.141Z,25.51
2019-06-20T07:48:07.262Z,25.61
2019-06-20T07:49:08.707Z,25.74
2019-06-20T07:50:10.164Z,25.91
2019-06-20T07:51:11.590Z,25.94
2019-06-20T07:52:13.024Z,26.01
2019-06-20T07:53:14.464Z,25.79
2019-06-20T07:54:15.881Z,25.89
2019-06-20T07:55:17.300Z,25.82
2019-06-20T07:56:18.729Z,25.75
2019-06-20T07:57:20.174Z,25.74
2019-06-20T07:58:21.621Z,25.51
2019-06-20T07:59:23.071Z,25.39
2019-06-20T08:00:24.501Z,25.48
2019-06-20T08:01:25.939Z,25.35
2019-06-20T08:02:27.387Z,25.36
2019-06-20T08:03:28.827Z,25.35
2019-06-20T08:04:30.281Z,25.22
2019-06-20T08:05:31.725Z,25.19
2019-06-20T08:06:33.165Z,25.01
2019-06-20T08:07:34.605Z,25.01
2019-06-20T08:08:36.050Z,24.93
2019-06-20T08:09:44.731Z,24.80
2019-06-20T08:10:38.851Z,24.63
2019-06-20T08:11:40.274Z,24.64
2019-06-20T08:12:41.733Z,24.51
2019-06-20T08:13:43.139Z,24.45
2019-06-20T08:14:44.543Z,24.30
2019-06-20T08:15:45.945Z,24.31
2019-06-20T08:16:47.382Z,24.30
2019-06-20T08:17:48.811Z,24.30
2019-06-20T08:18:50.227Z,24.19
2019-06-20T08:19:51.636Z,24.09
2019-06-20T08:20:53.060Z,24.14
2019-06-20T08:21:54.487Z,24.21
2019-06-20T08:22:55.880Z,24.30
2019-06-20T08:23:57.305Z,24.21
2019-06-20T08:24:59.040Z,24.15
2019-06-20T08:26:00.537Z,24.09
2019-06-20T08:27:03.082Z,23.92
2019-06-20T08:28:02.844Z,23.92
2019-06-20T08:29:15.829Z,23.79
2019-06-20T08:30:05.650Z,23.69
2019-06-20T08:31:07.058Z,23.77
2019-06-20T08:32:08.481Z,23.72
2019-06-20T08:33:11.964Z,23.74
2019-06-20T08:34:11.269Z,23.63
2019-06-20T08:35:12.682Z,23.62
2019-06-20T08:36:14.110Z,23.53
2019-06-20T08:37:15.519Z,23.37
2019-06-20T08:38:17.025Z,23.34
2019-06-20T08:39:18.438Z,23.31
2019-06-20T08:40:19.927Z,23.11
2019-06-20T08:41:21.372Z,23.11
2019-06-20T08:42:22.802Z,22.93
2019-06-20T08:43:24.204Z,22.94
2019-06-20T08:44:25.620Z,22.91
2019-06-20T08:45:27.039Z,22.97
2019-06-20T08:46:28.558Z,22.86
2019-06-20T08:47:30.096Z,22.86
2019-06-20T08:48:31.496Z,22.97
2019-06-20T08:49:32.933Z,22.91
2019-06-20T08:50:34.343Z,22.93
2019-06-20T08:51:35.777Z,22.91
2019-06-20T08:52:37.204Z,23.07
2019-06-20T08:53:38.614Z,22.94
2019-06-20T08:54:40.027Z,23.03
2019-06-20T08:55:41.444Z,22.93
2019-06-20T08:56:42.881Z,22.82
2019-06-20T08:57:44.259Z,22.76
2019-06-20T08:58:45.709Z,22.72
2019-06-20T08:59:47.113Z,22.72
2019-06-20T09:00:48.518Z,22.57
2019-06-20T09:01:49.934Z,22.69
2019-06-20T09:02:51.328Z,22.69
2019-06-20T09:03:53.974Z,22.66
2019-06-20T09:04:55.201Z,22.66
2019-06-20T09:05:57.098Z,22.74
2019-06-20T09:06:57.564Z,22.75
2019-06-20T09:07:59.007Z,22.88
2019-06-20T09:09:00.095Z,22.78
2019-06-20T09:10:01.852Z,22.82
2019-06-20T09:11:02.321Z,22.78
2019-06-20T09:12:04.975Z,22.78
2019-06-20T09:13:05.120Z,22.85
2019-06-20T09:14:06.526Z,22.81
2019-06-20T09:15:07.948Z,22.84
2019-06-20T09:16:16.305Z,22.93
2019-06-20T09:17:10.716Z,22.93
2019-06-20T09:18:12.132Z,23.01
2019-06-20T09:19:13.517Z,23.12
2019-06-20T09:20:14.941Z,23.26
2019-06-20T09:21:16.342Z,23.37
2019-06-20T09:22:17.744Z,23.47
2019-06-20T09:23:19.155Z,23.59
2019-06-20T09:24:20.574Z,23.72
2019-06-20T09:25:22.015Z,23.87
2019-06-20T09:26:23.430Z,23.94
2019-06-20T09:27:24.847Z,24.16
2019-06-20T09:28:26.276Z,24.33
2019-06-20T09:29:40.821Z,24.59
2019-06-20T09:30:29.060Z,24.89
2019-06-20T09:31:30.472Z,25.04
2019-06-20T09:32:31.889Z,25.29
2019-06-20T09:33:33.293Z,25.45
2019-06-20T09:34:34.694Z,25.45
2019-06-20T09:35:36.098Z,25.44
2019-06-20T09:36:37.508Z,25.34
2019-06-20T09:37:38.924Z,25.22
2019-06-20T09:38:40.326Z,25.17
2019-06-20T09:39:41.730Z,25.07
2019-06-20T09:40:43.136Z,25.04
2019-06-20T09:41:44.540Z,24.89
2019-06-20T09:42:45.936Z,24.89
2019-06-20T09:43:47.350Z,24.75
2019-06-20T09:44:49.854Z,24.75
2019-06-20T09:45:51.030Z,24.67
2019-06-20T09:46:52.330Z,24.63
2019-06-20T09:47:53.770Z,24.51
2019-06-20T09:48:55.534Z,24.41
2019-06-20T09:49:57.191Z,24.27
2019-06-20T09:50:57.038Z,24.29
2019-06-20T09:51:58.711Z,24.29
2019-06-20T09:52:59.706Z,24.21
2019-06-20T09:54:01.115Z,24.16
2019-06-20T09:55:02.605Z,24.09
2019-06-20T09:56:04.005Z,24.09
2019-06-20T09:57:05.431Z,24.05
2019-06-20T09:58:06.853Z,24.06
2019-06-20T09:59:08.243Z,24.14
2019-06-20T10:00:10.569Z,24.11
2019-06-20T10:01:11.023Z,24.11
2019-06-20T10:02:12.417Z,24.11
2019-06-20T10:03:13.823Z,24.26
2019-06-20T10:04:15.244Z,24.21
2019-06-20T10:05:16.637Z,24.30
2019-06-20T10:06:18.044Z,24.39
2019-06-20T10:07:19.456Z,24.42
2019-06-20T10:08:20.867Z,24.45
2019-06-20T10:09:22.263Z,24.42
2019-06-20T10:10:23.673Z,24.49
2019-06-20T10:11:25.097Z,24.45
2019-06-20T10:12:26.480Z,24.59
2019-06-20T10:13:27.901Z,24.63
2019-06-20T10:14:29.302Z,24.83
2019-06-20T10:15:30.718Z,24.92
2019-06-20T10:16:44.964Z,25.04
2019-06-20T10:17:33.508Z,25.12
2019-06-20T10:18:35.019Z,25.17
2019-06-20T10:19:36.371Z,25.22
2019-06-20T10:20:39.034Z,25.19
2019-06-20T10:21:39.148Z,25.27
2019-06-20T10:22:40.557Z,25.31
2019-06-20T10:23:41.959Z,25.39
2019-06-20T10:24:43.372Z,25.49
2019-06-20T10:25:46.060Z,25.44
2019-06-20T10:26:46.656Z,25.41
2019-06-20T10:27:48.324Z,25.45
2019-06-20T10:28:49.190Z,25.51
2019-06-20T10:29:51.029Z,25.57
2019-06-20T10:30:51.646Z,25.61
2019-06-20T10:31:53.160Z,25.79
2019-06-20T10:32:54.429Z,25.94
2019-06-20T10:33:56.879Z,26.01
2019-06-20T10:34:57.227Z,26.20
2019-06-20T10:35:58.633Z,26.19
2019-06-20T10:37:00.063Z,26.23
2019-06-20T10:38:01.474Z,26.31
2019-06-20T10:39:02.886Z,26.29
2019-06-20T10:40:04.290Z,26.32
2019-06-20T10:41:05.743Z,26.34
2019-06-20T10:42:07.117Z,26.32
2019-06-20T10:43:08.590Z,26.32
2019-06-20T10:44:09.950Z,26.31
2019-06-20T10:45:11.356Z,26.36
2019-06-20T10:46:12.780Z,26.34
2019-06-20T10:47:14.188Z,26.23
2019-06-20T10:48:15.596Z,26.17
2019-06-20T10:49:17.004Z,26.08
2019-06-20T10:50:18.418Z,26.17
2019-06-20T10:51:19.836Z,26.19
2019-06-20T10:52:21.262Z,26.04
2019-06-20T10:53:22.668Z,25.98
2019-06-20T10:54:24.079Z,25.90
2019-06-20T10:55:25.484Z,25.82
2019-06-20T10:56:26.903Z,25.82
2019-06-20T10:57:28.330Z,25.67
2019-06-20T10:58:29.734Z,25.59
2019-06-20T10:59:31.137Z,25.51
2019-06-20T11:00:32.562Z,25.49
2019-06-20T11:01:34.003Z,25.39
2019-06-20T11:02:35.415Z,25.35
2019-06-20T11:03:36.849Z,25.26
2019-06-20T11:04:40.447Z,25.17
2019-06-20T11:05:40.492Z,25.01
2019-06-20T11:06:41.637Z,24.99
2019-06-20T11:07:43.553Z,24.86
2019-06-20T11:08:45.097Z,24.92
2019-06-20T11:09:45.292Z,24.89
2019-06-20T11:10:47.201Z,24.87
2019-06-20T11:11:49.067Z,24.77
2019-06-20T11:12:55.027Z,24.68
2019-06-20T11:13:50.796Z,24.71
2019-06-20T11:14:52.225Z,24.74
2019-06-20T11:15:53.633Z,24.66
2019-06-20T11:16:55.056Z,24.63
2019-06-20T11:17:56.950Z,24.63
2019-06-20T11:18:57.926Z,24.52
2019-06-20T11:19:59.319Z,24.52
2019-06-20T11:21:00.739Z,24.39
2019-06-20T11:22:02.217Z,24.39
2019-06-20T11:23:03.615Z,24.39
2019-06-20T11:24:05.022Z,24.31
2019-06-20T11:25:06.450Z,24.27
2019-06-20T11:26:07.874Z,24.30
2019-06-20T11:27:09.273Z,24.29
2019-06-20T11:28:10.689Z,24.23
2019-06-20T11:29:12.092Z,24.23
2019-06-20T11:30:13.527Z,24.21
2019-06-20T11:31:14.945Z,24.27
2019-06-20T11:32:16.373Z,24.26
2019-06-20T11:33:17.778Z,24.30
2019-06-20T11:34:19.190Z,24.21
2019-06-20T11:35:20.610Z,24.24
2019-06-20T11:36:22.022Z,24.19
2019-06-20T11:37:23.479Z,24.29
2019-06-20T11:38:24.878Z,24.30
2019-06-20T11:39:26.303Z,24.36
2019-06-20T11:40:27.738Z,24.19
2019-06-20T11:41:29.161Z,24.23
2019-06-20T11:42:30.579Z,24.24
2019-06-20T11:43:31.993Z,24.26
2019-06-20T11:44:35.311Z,24.30
2019-06-20T11:45:36.058Z,24.31
2019-06-20T11:46:36.995Z,24.36
2019-06-20T11:47:38.275Z,24.36
2019-06-20T11:48:38.995Z,24.44
2019-06-20T11:49:40.477Z,24.39
2019-06-20T11:50:42.364Z,24.45
2019-06-20T11:51:43.209Z,24.49
2019-06-20T11:52:45.795Z,24.48
2019-06-20T11:53:46.017Z,24.48
2019-06-20T11:54:47.433Z,24.52
2019-06-20T11:55:48.847Z,24.63
2019-06-20T11:56:50.267Z,24.66
2019-06-20T11:57:51.701Z,24.60
2019-06-20T11:58:53.119Z,24.70
2019-06-20T11:59:54.564Z,24.75
2019-06-20T12:01:03.684Z,24.87
2019-06-20T12:01:57.315Z,24.89
2019-06-20T12:02:58.722Z,24.92
2019-06-20T12:04:00.143Z,24.94
2019-06-20T12:05:01.559Z,24.97
2019-06-20T12:06:02.973Z,24.94
2019-06-20T12:07:04.393Z,24.94
2019-06-20T12:08:05.812Z,24.82
2019-06-20T12:09:07.253Z,24.83
2019-06-20T12:10:09.457Z,24.75
2019-06-20T12:11:10.865Z,24.79
2019-06-20T12:12:12.285Z,24.70
2019-06-20T12:13:13.695Z,24.74
2019-06-20T12:14:15.130Z,24.80
2019-06-20T12:15:16.576Z,24.89
2019-06-20T12:16:17.981Z,24.94
2019-06-20T12:17:19.389Z,24.98
2019-06-20T12:18:20.805Z,24.97
2019-06-20T12:19:22.218Z,24.84
2019-06-20T12:20:23.634Z,24.99
2019-06-20T12:21:25.059Z,25.04
2019-06-20T12:22:26.477Z,25.27
2019-06-20T12:23:27.889Z,25.46
2019-06-20T12:24:29.314Z,25.59
2019-06-20T12:25:30.752Z,25.83
2019-06-20T12:26:32.162Z,26.19
2019-06-20T12:27:33.608Z,26.36
2019-06-20T12:28:35.016Z,26.57
2019-06-20T12:29:36.432Z,26.56
2019-06-20T12:30:38.382Z,26.56
2019-06-20T12:31:39.799Z,26.71
2019-06-20T12:32:41.079Z,26.81
2019-06-20T12:33:42.509Z,27.06
2019-06-20T12:34:44.493Z,27.05
2019-06-20T12:35:44.800Z,27.05
2019-06-20T12:36:46.641Z,26.94
2019-06-20T12:37:47.768Z,27.03
2019-06-20T12:38:48.986Z,26.88
2019-06-20T12:39:50.414Z,26.83
2019-06-20T12:40:51.810Z,26.75
2019-06-20T12:41:53.227Z,26.81
2019-06-20T12:42:54.629Z,27.20
2019-06-20T12:43:56.034Z,27.61
2019-06-20T12:44:57.440Z,28.36
2019-06-20T12:45:58.882Z,29.02
2019-06-20T12:47:00.299Z,29.42
2019-06-20T12:48:01.699Z,29.63
2019-06-20T12:49:03.140Z,29.60
2019-06-20T12:50:04.585Z,29.69
2019-06-20T12:51:05.986Z,29.63
2019-06-20T12:52:07.398Z,29.64
2019-06-20T12:53:08.814Z,29.67
2019-06-20T12:54:10.264Z,29.58
2019-06-20T12:55:11.681Z,29.64
2019-06-20T12:56:13.108Z,29.58
2019-06-20T12:57:14.511Z,29.42
2019-06-20T12:58:15.958Z,29.20
2019-06-20T12:59:17.363Z,29.00
2019-06-20T13:00:18.980Z,28.91
2019-06-20T13:01:34.428Z,28.73
2019-06-20T13:02:21.778Z,28.57
2019-06-20T13:03:23.195Z,28.33
2019-06-20T13:04:24.621Z,28.14
2019-06-20T13:05:26.043Z,27.98
2019-06-20T13:06:27.456Z,27.88
2019-06-20T13:07:28.873Z,27.76
2019-06-20T13:08:30.291Z,27.72
2019-06-20T13:09:31.687Z,27.61
2019-06-20T13:10:33.098Z,27.48